Aviation Digital Data Service (ADDS)

Output produced by METARs form (2318 UTC 05 July 2015)
found at http://www.aviationweather.gov/adds/metars/
 
KATL 052155Z 0522/0624 24009G15KT P6SM SCT040 BKN120 
     FM060000 21006KT P6SM SCT040 BKN100 
     FM060800 24003KT 6SM BR BKN012 
     FM061000 25003KT 4SM BR BKN007 
     FM061500 28005KT P6SM BKN012 
     FM061700 24005KT P6SM BKN040 
     PROB30 0617/0623 5SM TSRA BKN025CB